Time;durP1;ratioP1;P1;durP2;ratioP2;P2;SDS_P1;SDS_P2;PMS_P1;PMS_P2;Temp;Humidity;BMP_temperature;BMP_pressure;BME280_temperature;BME280_humidity;BME280_pressure;Samples;Min_cycle;Max_cycle;Signal;HPM_P1;HPM_P2
2021/07/25 00:01:06;;;;;;;11.77;8.25;;;;;;;20.94;45.72;100448.31;3580748;40;21044;-80
2021/07/25 00:03:35;;;;;;;11.02;8.23;;;;;;;20.95;45.44;100451.94;3590314;40;20367;-80
2021/07/25 00:06:03;;;;;;;11.73;8.20;;;;;;;20.94;45.47;100451.09;3589716;40;20060;-80
2021/07/25 00:08:31;;;;;;;11.90;8.30;;;;;;;20.92;45.58;100442.09;3590040;40;20758;-80
2021/07/25 00:10:59;;;;;;;11.75;8.95;;;;;;;20.93;45.67;100454.94;3576386;40;20047;-80
2021/07/25 00:13:30;;;;;;;12.80;8.95;;;;;;;20.95;45.59;100451.94;3595590;40;20137;-80
2021/07/25 00:15:58;;;;;;;10.98;7.82;;;;;;;20.92;45.59;100447.66;3589653;40;20036;-80
2021/07/25 00:18:37;;;;;;;13.43;8.38;;;;;;;20.91;45.97;100451.50;3590090;40;20025;-80
2021/07/25 00:21:05;;;;;;;12.50;8.82;;;;;;;20.92;45.95;100455.13;3588686;40;20051;-80
2021/07/25 00:23:33;;;;;;;13.57;8.93;;;;;;;20.91;46.21;100450.69;3589101;40;20044;-80
2021/07/25 00:26:01;;;;;;;12.98;8.75;;;;;;;20.92;45.71;100450.44;3577837;40;20412;-80
2021/07/25 00:28:34;;;;;;;15.15;9.13;;;;;;;20.95;45.84;100451.94;3589072;40;20381;-80
2021/07/25 00:31:04;;;;;;;13.13;9.50;;;;;;;20.93;46.17;100459.63;3588802;40;20063;-80
2021/07/25 00:33:33;;;;;;;11.65;8.93;;;;;;;20.93;45.69;100454.09;3589812;40;20032;-80
2021/07/25 00:36:02;;;;;;;11.30;8.77;;;;;;;20.93;46.11;100452.16;3589622;40;20118;-81
2021/07/25 00:38:30;;;;;;;10.82;8.25;;;;;;;20.92;45.66;100455.13;3590292;40;20034;-80
2021/07/25 00:41:08;;;;;;;12.93;9.13;;;;;;;20.92;45.91;100457.91;3589331;40;20048;-80
2021/07/25 00:43:38;;;;;;;11.23;8.02;;;;;;;20.92;45.81;100457.91;3588777;40;20382;-81
2021/07/25 00:46:06;;;;;;;11.68;8.77;;;;;;;20.90;46.44;100451.75;3589285;40;20363;-80
2021/07/25 00:48:36;;;;;;;12.50;8.73;;;;;;;20.93;46.29;100446.59;3580043;40;20374;-80
2021/07/25 00:51:06;;;;;;;11.35;8.50;;;;;;;20.91;46.04;100450.69;3579689;40;20313;-82
2021/07/25 00:53:35;;;;;;;10.52;8.50;;;;;;;20.89;46.40;100447.25;3579164;40;20119;-81
2021/07/25 00:56:07;;;;;;;15.88;8.00;;;;;;;20.87;46.20;100447.41;3579259;40;20076;-80
2021/07/25 00:58:38;;;;;;;11.68;8.65;;;;;;;20.87;46.39;100444.63;3579692;40;20049;-80
2021/07/25 01:01:07;;;;;;;11.63;8.63;;;;;;;20.85;46.48;100441.19;3579815;40;20119;-80
2021/07/25 01:03:52;;;;;;;13.00;8.93;;;;;;;20.88;46.83;100442.72;3581354;40;20033;-81
2021/07/25 01:06:33;;;;;;;12.05;8.63;;;;;;;20.86;47.17;100436.50;3580628;40;20048;-80
2021/07/25 01:09:03;;;;;;;11.65;8.68;;;;;;;20.81;46.83;100434.34;3584267;40;20026;-80
2021/07/25 01:11:33;;;;;;;12.25;8.23;;;;;;;20.81;46.51;100431.59;3580726;39;20051;-80
2021/07/25 01:14:04;;;;;;;12.85;9.63;;;;;;;20.80;46.97;100429.00;3581142;40;20033;-80
2021/07/25 01:16:33;;;;;;;12.75;9.18;;;;;;;20.75;47.01;100423.22;3580725;40;20041;-80
2021/07/25 01:19:01;;;;;;;11.65;8.85;;;;;;;20.72;46.49;100435.63;3581154;40;20033;-80
2021/07/25 01:21:31;;;;;;;12.23;8.82;;;;;;;20.72;46.67;100445.88;3580645;40;20107;-80
2021/07/25 01:23:59;;;;;;;12.55;8.45;;;;;;;20.66;46.88;100437.31;3581249;40;20281;-80
2021/07/25 01:26:30;;;;;;;12.88;8.88;;;;;;;20.67;46.91;100441.78;3579682;40;20118;-80
2021/07/25 01:29:00;;;;;;;11.90;7.97;;;;;;;20.64;46.50;100442.22;3581078;40;20041;-81
2021/07/25 01:31:31;;;;;;;11.68;8.82;;;;;;;20.65;47.01;100434.75;3580569;40;20049;-80
2021/07/25 01:34:01;;;;;;;13.30;9.70;;;;;;;20.59;46.74;100427.22;3579940;40;20216;-80
2021/07/25 01:36:31;;;;;;;11.95;8.68;;;;;;;20.59;47.02;100435.56;3580357;40;20390;-79
2021/07/25 01:38:59;;;;;;;12.40;8.48;;;;;;;20.56;47.16;100434.06;3579767;40;20405;-81
2021/07/25 01:41:27;;;;;;;11.40;8.65;;;;;;;20.55;46.70;100432.34;3570472;40;20041;-80
2021/07/25 01:43:55;;;;;;;11.85;8.65;;;;;;;20.55;47.13;100431.50;3584389;40;20056;-81
2021/07/25 01:46:23;;;;;;;11.88;8.40;;;;;;;20.54;46.88;100433.41;3580433;40;20081;-80
2021/07/25 01:48:51;;;;;;;12.68;8.75;;;;;;;20.54;47.24;100432.56;3580203;40;20367;-81
2021/07/25 01:51:19;;;;;;;12.43;8.48;;;;;;;20.52;47.19;100429.13;3579450;40;20044;-80
2021/07/25 01:53:48;;;;;;;11.32;8.05;;;;;;;20.53;47.28;100426.13;3579678;40;20029;-80
2021/07/25 01:56:16;;;;;;;12.80;9.25;;;;;;;20.52;46.99;100427.19;3580298;40;20130;-80
2021/07/25 01:58:44;;;;;;;12.30;8.60;;;;;;;20.51;46.79;100430.19;3580879;40;20309;-80
2021/07/25 02:01:12;;;;;;;11.05;8.23;;;;;;;20.50;46.79;100429.31;3580438;39;20045;-80
2021/07/25 02:03:40;;;;;;;12.48;7.80;;;;;;;20.50;47.37;100434.88;3579949;40;20040;-81
2021/07/25 02:06:09;;;;;;;11.93;8.77;;;;;;;20.48;46.85;100425.91;3580202;40;20406;-80
2021/07/25 02:08:36;;;;;;;11.18;8.02;;;;;;;20.47;47.34;100421.41;3581099;40;20077;-80
2021/07/25 02:11:09;;;;;;;10.98;7.88;;;;;;;20.50;47.40;100420.97;3580274;40;20133;-80
2021/07/25 02:13:37;;;;;;;12.60;8.93;;;;;;;20.46;47.22;100419.69;3562531;40;20032;-80
2021/07/25 02:16:06;;;;;;;11.75;8.48;;;;;;;20.47;47.50;100415.88;3582711;40;20043;-80
2021/07/25 02:18:34;;;;;;;11.27;8.50;;;;;;;20.46;47.28;100405.81;3590788;40;20112;-79
2021/07/25 02:21:02;;;;;;;12.20;8.88;;;;;;;20.47;47.51;100415.00;3589385;40;20123;-80
2021/07/25 02:23:30;;;;;;;11.20;8.13;;;;;;;20.46;47.18;100402.16;3590142;40;20050;-80
2021/07/25 02:25:58;;;;;;;10.73;8.07;;;;;;;20.46;47.11;100414.16;3578512;40;20052;-80
2021/07/25 02:28:27;;;;;;;11.98;8.80;;;;;;;20.49;46.80;100410.97;3589938;40;20078;-80
2021/07/25 02:30:55;;;;;;;12.13;8.75;;;;;;;20.47;47.14;100412.22;3589050;40;20143;-79
2021/07/25 02:33:23;;;;;;;12.15;8.82;;;;;;;20.47;47.44;100415.00;3590766;40;20029;-80
2021/07/25 02:35:51;;;;;;;11.48;8.40;;;;;;;20.46;47.04;100413.28;3590222;40;20048;-80
2021/07/25 02:38:19;;;;;;;11.32;8.65;;;;;;;20.46;47.41;100407.72;3590654;40;20049;-80
2021/07/25 02:40:47;;;;;;;12.70;8.95;;;;;;;20.44;46.93;100407.06;3590238;40;20036;-80
2021/07/25 02:43:15;;;;;;;11.32;8.07;;;;;;;20.44;47.04;100407.06;3589596;40;20039;-80
2021/07/25 02:45:44;;;;;;;11.38;7.95;;;;;;;20.45;46.78;100401.31;3589903;40;20035;-79
2021/07/25 02:48:12;;;;;;;12.27;8.07;;;;;;;20.43;47.10;100399.78;3589774;40;20114;-80
2021/07/25 02:50:40;;;;;;;11.30;8.45;;;;;;;20.42;46.75;100401.72;3589966;40;20039;-80
2021/07/25 02:53:08;;;;;;;10.77;7.80;;;;;;;20.43;47.32;100394.25;3589882;40;20357;-80
2021/07/25 02:55:37;;;;;;;12.48;8.27;;;;;;;20.42;47.24;100407.28;3590068;40;20082;-80
2021/07/25 02:58:05;;;;;;;11.25;8.52;;;;;;;20.42;46.85;100406.44;3590547;40;20045;-80
2021/07/25 03:00:32;;;;;;;12.55;8.32;;;;;;;20.41;46.57;100404.72;3577437;39;20126;-80
2021/07/25 03:03:02;;;;;;;11.60;8.55;;;;;;;20.41;46.59;100405.59;3597577;39;20040;-80
2021/07/25 03:05:30;;;;;;;10.95;8.57;;;;;;;20.39;46.87;100404.94;3589172;40;20029;-80
2021/07/25 03:07:58;;;;;;;11.32;8.05;;;;;;;20.38;46.52;100408.78;3589551;40;20381;-82
2021/07/25 03:10:26;;;;;;;10.35;7.70;;;;;;;20.38;46.86;100410.69;3590669;40;20024;-80
2021/07/25 03:12:54;;;;;;;11.57;8.65;;;;;;;20.37;46.41;100415.38;3590116;40;20056;-81
2021/07/25 03:15:22;;;;;;;9.82;7.55;;;;;;;20.35;46.75;100406.41;3590578;40;20419;-80
2021/07/25 03:17:52;;;;;;;11.55;8.52;;;;;;;20.34;46.57;100403.84;3590204;40;20048;-83
2021/07/25 03:20:21;;;;;;;10.23;7.40;;;;;;;20.33;46.86;100400.22;3590378;40;20375;-81
2021/07/25 03:22:49;;;;;;;10.95;7.32;;;;;;;20.30;46.84;100400.63;3589432;40;20051;-80
2021/07/25 03:25:18;;;;;;;9.95;7.60;;;;;;;20.30;47.00;100397.84;3589841;40;20035;-80
2021/07/25 03:27:46;;;;;;;12.35;7.82;;;;;;;20.25;46.94;100395.66;3588972;40;20060;-80
2021/07/25 03:30:14;;;;;;;11.50;7.65;;;;;;;20.25;47.06;100400.38;3589904;40;20052;-80
2021/07/25 03:32:42;;;;;;;9.85;7.20;;;;;;;20.22;46.55;100392.47;3590304;40;20048;-80
2021/07/25 03:35:11;;;;;;;9.52;7.50;;;;;;;20.23;46.85;100394.19;3589750;40;20036;-81
2021/07/25 03:37:43;;;;;;;11.55;7.47;;;;;;;20.22;46.78;100396.09;3589021;40;20087;-80
2021/07/25 03:40:13;;;;;;;10.85;7.25;;;;;;;20.20;46.99;100397.31;3590579;40;20045;-80
2021/07/25 03:42:41;;;;;;;11.25;6.70;;;;;;;20.20;46.81;100400.09;3588959;40;20294;-79
2021/07/25 03:45:10;;;;;;;10.25;7.25;;;;;;;20.20;46.87;100397.31;3590365;40;20087;-80
2021/07/25 03:47:39;;;;;;;12.82;7.38;;;;;;;20.21;46.80;100399.06;3589962;40;20056;-80
2021/07/25 03:50:08;;;;;;;9.70;7.13;;;;;;;20.19;46.37;100401.16;3590293;40;20020;-80
2021/07/25 03:52:37;;;;;;;9.27;7.00;;;;;;;20.18;46.83;100399.44;3589837;40;20393;-80
2021/07/25 03:55:07;;;;;;;9.68;7.07;;;;;;;20.19;46.86;100399.25;3590530;40;20048;-81
2021/07/25 03:57:36;;;;;;;9.32;6.97;;;;;;;20.17;46.97;100398.59;3579910;40;20041;-80
2021/07/25 04:00:06;;;;;;;10.20;7.28;;;;;;;20.17;46.58;100401.38;3580853;40;20103;-81
2021/07/25 04:02:33;;;;;;;9.32;6.88;;;;;;;20.16;46.43;100396.03;3579932;40;20049;-80
2021/07/25 04:05:02;;;;;;;9.07;6.78;;;;;;;20.15;46.36;100394.31;3580339;40;20338;-81
2021/07/25 04:07:30;;;;;;;10.05;6.72;;;;;;;20.15;46.67;100394.31;3580179;40;20061;-81
2021/07/25 04:09:58;;;;;;;10.57;7.35;;;;;;;20.14;47.01;100400.94;3580316;40;20041;-80
2021/07/25 04:12:27;;;;;;;9.00;6.93;;;;;;;20.15;47.06;100399.88;3579600;40;20045;-81
2021/07/25 04:14:55;;;;;;;9.95;7.28;;;;;;;20.12;46.95;100394.72;3580356;40;20475;-80
2021/07/25 04:17:23;;;;;;;10.68;7.75;;;;;;;20.11;46.91;100393.00;3580327;40;20413;-81
2021/07/25 04:19:51;;;;;;;13.02;7.95;;;;;;;20.09;47.38;100406.25;3580310;40;20119;-80
2021/07/25 04:22:19;;;;;;;9.88;6.95;;;;;;;20.05;47.43;100400.25;3580063;40;20052;-81
2021/07/25 04:24:47;;;;;;;9.23;6.85;;;;;;;20.04;47.11;100401.31;3580006;40;20037;-81
2021/07/25 04:27:16;;;;;;;11.45;7.50;;;;;;;20.03;47.27;100407.06;3561690;40;20138;-81
2021/07/25 04:29:48;;;;;;;11.40;7.25;;;;;;;20.01;46.75;100417.53;3579389;40;20367;-80
2021/07/25 04:32:16;;;;;;;9.32;6.70;;;;;;;19.97;47.27;100414.31;3579713;40;20390;-81
2021/07/25 04:34:45;;;;;;;8.65;6.40;;;;;;;19.95;47.26;100413.63;3579080;40;20302;-81
2021/07/25 04:37:23;;;;;;;11.05;6.97;;;;;;;19.93;47.19;100416.63;3579453;40;20055;-81
2021/07/25 04:39:52;;;;;;;10.10;6.50;;;;;;;19.91;46.95;100409.56;3580301;40;20045;-80
2021/07/25 04:42:23;;;;;;;9.40;5.93;;;;;;;19.90;46.93;100403.16;3579435;40;20045;-81
2021/07/25 04:45:00;;;;;;;8.43;6.13;;;;;;;19.89;47.30;100411.69;3580249;40;20037;-80
2021/07/25 04:47:35;;;;;;;10.65;6.40;;;;;;;19.89;47.17;100411.69;3579648;40;20061;-80
2021/07/25 04:50:06;;;;;;;8.70;6.63;;;;;;;19.88;47.54;100407.19;3580233;40;20045;-80
2021/07/25 04:52:38;;;;;;;9.15;6.18;;;;;;;19.88;47.67;100419.16;3579484;40;20045;-80
2021/07/25 04:55:09;;;;;;;9.33;6.17;;;;;;;19.85;47.68;100414.00;3580441;40;20052;-81
2021/07/25 04:57:41;;;;;;;9.93;6.25;;;;;;;19.88;47.48;100418.31;3548001;40;20033;-80
2021/07/25 05:00:14;;;;;;;9.50;6.35;;;;;;;19.85;47.52;100422.34;3580507;40;20370;-82
2021/07/25 05:02:43;;;;;;;9.10;6.53;;;;;;;19.86;47.17;100423.19;3578651;40;20049;-81
2021/07/25 05:05:13;;;;;;;9.30;6.30;;;;;;;19.86;47.31;100420.41;3579706;40;20041;-80
2021/07/25 05:07:42;;;;;;;9.23;6.15;;;;;;;19.86;47.49;100426.81;3579675;40;20053;-80
2021/07/25 05:10:11;;;;;;;7.82;6.25;;;;;;;19.88;47.79;100423.84;3579946;40;20030;-80
2021/07/25 05:12:45;;;;;;;9.70;6.57;;;;;;;19.91;48.08;100431.78;3579400;39;20055;-80
2021/07/25 05:15:17;;;;;;;10.40;6.50;;;;;;;19.95;48.22;100427.53;3579989;40;20390;-80
2021/07/25 05:17:52;;;;;;;10.27;6.55;;;;;;;20.01;48.24;100423.09;3579144;40;20048;-80
2021/07/25 05:20:22;;;;;;;10.43;6.93;;;;;;;20.04;48.91;100431.00;3579777;40;20044;-81
2021/07/25 05:22:55;;;;;;;11.68;6.97;;;;;;;20.12;49.02;100417.78;3578305;40;20106;-81
2021/07/25 05:25:25;;;;;;;9.13;5.88;;;;;;;20.20;48.89;100428.72;3579695;40;20041;-81
2021/07/25 05:27:54;;;;;;;9.18;6.32;;;;;;;20.30;48.78;100425.63;3579323;40;20343;-82
2021/07/25 05:30:25;;;;;;;8.90;6.30;;;;;;;20.41;49.18;100426.97;3587024;40;20088;-80
2021/07/25 05:32:55;;;;;;;8.18;5.57;;;;;;;20.48;48.79;100428.69;3579153;40;20080;-80
2021/07/25 05:35:23;;;;;;;10.68;6.75;;;;;;;20.59;48.76;100430.00;3579539;40;20040;-81
2021/07/25 05:37:51;;;;;;;8.68;5.13;;;;;;;20.72;48.62;100435.63;3577971;40;20045;-81
2021/07/25 05:40:19;;;;;;;8.20;5.75;;;;;;;20.83;48.38;100429.41;3579488;40;20037;-80
2021/07/25 05:42:47;;;;;;;7.28;5.30;;;;;;;20.94;48.15;100439.13;3578903;40;20044;-80
2021/07/25 05:45:15;;;;;;;8.82;5.55;;;;;;;21.04;48.16;100428.44;3579448;40;20045;-80
2021/07/25 05:47:44;;;;;;;8.60;5.60;;;;;;;21.15;47.71;100430.63;3579454;40;20130;-81
2021/07/25 05:50:13;;;;;;;8.07;5.75;;;;;;;21.22;47.79;100436.19;3580904;40;20033;-81
2021/07/25 05:52:46;;;;;;;7.15;5.32;;;;;;;21.36;47.42;100437.88;3579528;40;20107;-80
2021/07/25 05:55:17;;;;;;;8.57;5.00;;;;;;;21.38;47.77;100444.97;3581375;40;20049;-80
2021/07/25 05:57:45;;;;;;;8.40;5.72;;;;;;;21.47;47.70;100436.41;3584548;40;20044;-80
2021/07/25 06:00:14;;;;;;;8.77;5.95;;;;;;;21.55;47.30;100439.81;3579948;40;20119;-80
2021/07/25 06:02:52;;;;;;;7.95;5.32;;;;;;;21.64;46.74;100438.56;3587889;40;20048;-81
2021/07/25 06:05:21;;;;;;;6.70;5.20;;;;;;;21.68;46.99;100433.41;3580989;40;20037;-81
2021/07/25 06:07:49;;;;;;;7.25;5.18;;;;;;;21.75;47.01;100442.59;3580238;40;20057;-80
2021/07/25 06:10:18;;;;;;;7.90;5.50;;;;;;;21.81;46.83;100436.19;3580137;40;20029;-81
2021/07/25 06:12:46;;;;;;;8.10;5.50;;;;;;;21.87;46.83;100437.25;3579449;40;20053;-81
2021/07/25 06:15:14;;;;;;;8.40;5.28;;;;;;;21.95;46.84;100439.81;3588135;40;20131;-82
2021/07/25 06:17:43;;;;;;;7.93;4.60;;;;;;;22.01;46.43;100438.94;3580152;40;20832;-81
2021/07/25 06:20:13;;;;;;;8.05;5.10;;;;;;;22.09;46.24;100442.34;3582614;40;20025;-82
2021/07/25 06:22:47;;;;;;;6.63;4.63;;;;;;;22.15;46.16;100443.38;3582500;40;20040;-81
2021/07/25 06:25:20;;;;;;;7.10;4.78;;;;;;;22.22;46.08;100443.44;3580705;40;20412;-82
2021/07/25 06:27:51;;;;;;;6.82;4.50;;;;;;;22.28;45.92;100431.41;3569888;40;20080;-81
2021/07/25 06:30:20;;;;;;;7.25;5.25;;;;;;;22.34;46.06;100436.94;3578950;40;20037;-82
2021/07/25 06:32:59;;;;;;;7.22;5.00;;;;;;;22.45;45.20;100438.19;3578673;40;20047;-82
2021/07/25 06:35:29;;;;;;;7.80;4.95;;;;;;;22.50;45.40;100435.59;3579087;40;20087;-82
2021/07/25 06:37:58;;;;;;;7.60;5.13;;;;;;;22.56;45.32;100443.91;3569040;40;20054;-82
2021/07/25 06:40:27;;;;;;;7.90;5.10;;;;;;;22.64;45.38;100441.97;3569047;40;20119;-81
2021/07/25 06:42:56;;;;;;;6.88;4.75;;;;;;;22.70;45.36;100441.94;3568519;40;20037;-83
2021/07/25 06:45:25;;;;;;;6.47;4.80;;;;;;;22.78;45.46;100444.47;3568932;40;20025;-83
2021/07/25 06:47:53;;;;;;;8.52;5.45;;;;;;;22.87;44.69;100439.53;3568396;40;20045;-83
2021/07/25 06:50:22;;;;;;;8.20;5.15;;;;;;;22.95;44.90;100450.41;3560867;40;20307;-82
2021/07/25 06:52:54;;;;;;;7.43;5.10;;;;;;;23.04;44.26;100445.44;3568502;40;20049;-83
2021/07/25 06:55:24;;;;;;;6.20;4.78;;;;;;;23.09;44.74;100440.03;3568792;40;20025;-83
2021/07/25 06:57:52;;;;;;;7.55;4.40;;;;;;;23.18;44.48;100442.31;3567833;40;20042;-83
2021/07/25 07:00:20;;;;;;;6.70;4.22;;;;;;;23.27;44.09;100440.09;3569340;40;20107;-84
2021/07/25 07:02:50;;;;;;;6.53;4.35;;;;;;;23.36;44.06;100441.53;3568509;40;20067;-83
2021/07/25 07:05:19;;;;;;;5.93;4.05;;;;;;;23.45;43.79;100442.13;3569032;40;20022;-84
2021/07/25 07:07:49;;;;;;;5.80;3.72;;;;;;;23.54;43.74;100440.78;3546563;40;20398;-84
2021/07/25 07:10:20;;;;;;;4.93;3.17;;;;;;;23.64;43.32;100441.97;3568659;40;20025;-83
2021/07/25 07:12:49;;;;;;;6.18;3.80;;;;;;;23.68;43.27;100451.63;3568371;40;20053;-83
2021/07/25 07:15:18;;;;;;;5.68;3.60;;;;;;;23.80;42.90;100443.31;3568503;40;20108;-83
2021/07/25 07:17:48;;;;;;;5.82;3.97;;;;;;;23.91;42.62;100445.38;3568039;40;20361;-82
2021/07/25 07:20:17;;;;;;;5.90;3.55;;;;;;;23.97;42.78;100446.38;3568634;40;20034;-83
2021/07/25 07:22:52;;;;;;;5.72;3.90;;;;;;;24.09;41.41;100446.50;3568031;40;20460;-82
2021/07/25 07:25:22;;;;;;;5.70;3.58;;;;;;;24.16;42.28;100452.88;3569207;40;20073;-82
2021/07/25 07:27:50;;;;;;;7.22;3.72;;;;;;;24.24;42.30;100449.78;3567840;40;20053;-82
2021/07/25 07:30:18;;;;;;;10.65;4.70;;;;;;;24.31;42.11;100451.41;3568521;40;20034;-82
2021/07/25 07:32:47;;;;;;;5.13;3.33;;;;;;;24.39;41.91;100448.31;3567825;40;20054;-83
2021/07/25 07:35:15;;;;;;;6.43;3.50;;;;;;;24.49;41.65;100452.50;3568427;40;20409;-83
2021/07/25 07:37:43;;;;;;;6.65;3.28;;;;;;;24.56;41.29;100456.06;3546015;40;20552;-84
2021/07/25 07:40:11;;;;;;;5.45;3.50;;;;;;;24.65;40.99;100449.06;3576243;40;20025;-83
2021/07/25 07:42:41;;;;;;;4.78;3.20;;;;;;;24.73;40.70;100452.44;3578529;40;20045;-83
2021/07/25 07:45:10;;;;;;;4.40;2.92;;;;;;;24.78;40.93;100446.16;3579394;40;20034;-84
2021/07/25 07:47:38;;;;;;;4.60;2.78;;;;;;;24.87;40.86;100452.25;3579316;39;20037;-81
2021/07/25 07:50:07;;;;;;;4.70;2.90;;;;;;;24.93;40.63;100456.91;3581788;40;20103;-82
2021/07/25 07:52:35;;;;;;;6.63;2.83;;;;;;;25.00;40.55;100460.47;3557704;40;20041;-82
2021/07/25 07:55:04;;;;;;;5.68;3.63;;;;;;;25.07;40.12;100455.63;3579950;40;20466;-82
2021/07/25 07:57:32;;;;;;;6.07;3.10;;;;;;;25.11;40.13;100459.66;3579186;40;20305;-82
2021/07/25 08:00:01;;;;;;;5.75;2.92;;;;;;;25.20;39.78;100458.19;3579993;40;20117;-83
2021/07/25 08:02:39;;;;;;;5.45;3.17;;;;;;;25.23;39.90;100457.75;3579325;40;20111;-83
2021/07/25 08:05:08;;;;;;;6.00;2.97;;;;;;;25.31;39.70;100460.22;3579850;40;20033;-83
2021/07/25 08:07:37;;;;;;;5.70;3.40;;;;;;;25.36;39.71;100454.75;3578198;40;20045;-83
2021/07/25 08:10:07;;;;;;;5.40;3.17;;;;;;;25.43;39.42;100463.94;3579377;40;20041;-83
2021/07/25 08:12:36;;;;;;;5.10;3.28;;;;;;;25.47;39.43;100465.13;3578283;40;20052;-82
2021/07/25 08:15:07;;;;;;;4.88;3.05;;;;;;;25.54;38.82;100456.63;3578958;40;20111;-74
2021/07/25 08:17:36;;;;;;;4.72;3.38;;;;;;;25.58;38.91;100469.06;3585112;40;20055;-74
2021/07/25 08:20:05;;;;;;;5.47;3.30;;;;;;;25.63;38.69;100462.72;3586646;40;20055;-76
2021/07/25 08:22:33;;;;;;;5.22;3.47;;;;;;;25.65;38.25;100466.16;3590044;40;20056;-74
2021/07/25 08:25:01;;;;;;;5.40;3.15;;;;;;;25.67;38.33;100464.81;3586297;40;20075;-74
2021/07/25 08:27:29;;;;;;;6.25;3.97;;;;;;;25.68;38.21;100466.53;3587102;40;20145;-74
2021/07/25 08:29:57;;;;;;;5.00;3.22;;;;;;;25.70;37.80;100466.25;3587650;40;20056;-74
2021/07/25 08:32:27;;;;;;;5.25;3.28;;;;;;;25.72;37.96;100466.88;3588421;40;20105;-73
2021/07/25 08:34:55;;;;;;;5.07;3.05;;;;;;;25.71;38.06;100465.16;3589262;40;20063;-74
2021/07/25 08:37:23;;;;;;;5.03;3.45;;;;;;;25.71;37.89;100463.22;3588384;39;20051;-74
2021/07/25 08:39:52;;;;;;;6.22;3.58;;;;;;;25.73;37.84;100466.66;3589551;40;20490;-74
2021/07/25 08:42:24;;;;;;;5.07;3.53;;;;;;;25.76;37.17;100465.31;3588446;40;20050;-73
2021/07/25 08:44:52;;;;;;;;;;;;;;;25.44;38.38;100457.19;3590229;40;20148;-74
2021/07/25 08:47:24;;;;;;;5.88;2.92;;;;;;;25.75;37.66;100464.47;3580340;40;19948;-73
2021/07/25 08:49:57;;;;;;;4.28;2.80;;;;;;;25.80;37.58;100456.16;3585541;40;20060;-74
2021/07/25 08:52:26;;;;;;;4.85;3.13;;;;;;;25.79;37.87;100462.88;3587405;40;20033;-74
2021/07/25 08:54:56;;;;;;;5.60;3.22;;;;;;;25.83;37.80;100466.94;3584907;40;20162;-75
2021/07/25 08:57:26;;;;;;;5.00;3.22;;;;;;;25.87;37.88;100472.91;3586040;40;20123;-73
2021/07/25 08:59:55;;;;;;;4.47;3.20;;;;;;;25.89;37.41;100460.34;3590255;40;20041;-73
2021/07/25 09:02:25;;;;;;;4.60;3.17;;;;;;;25.91;37.04;100460.13;3587285;40;20588;-74
2021/07/25 09:04:56;;;;;;;5.68;3.80;;;;;;;25.94;36.74;100460.47;3590070;40;20590;-73
2021/07/25 09:07:25;;;;;;;3.88;2.78;;;;;;;25.95;36.75;100444.50;3586674;40;20405;-73
2021/07/25 09:09:56;;;;;;;5.40;3.05;;;;;;;25.99;36.15;100458.91;3584634;40;20356;-73
2021/07/25 09:12:26;;;;;;;4.47;2.75;;;;;;;25.99;36.70;100445.75;3587002;40;20470;-73
2021/07/25 09:14:56;;;;;;;5.53;2.70;;;;;;;26.03;36.36;100458.16;3589047;40;20057;-73
2021/07/25 09:17:26;;;;;;;4.43;2.42;;;;;;;26.05;36.19;100458.78;3586742;40;20049;-73
2021/07/25 09:20:13;;;;;;;4.70;2.70;;;;;;;26.07;35.67;100455.72;3588509;40;20064;-74
2021/07/25 09:22:56;;;;;;;4.22;2.72;;;;;;;26.11;35.39;100468.13;3586493;40;20040;-73
2021/07/25 09:25:36;;;;;;;3.88;2.50;;;;;;;26.15;35.29;100452.56;3588200;40;20129;-73
2021/07/25 09:28:26;;;;;;;6.15;2.53;;;;;;;26.19;35.31;100467.78;3588977;40;20401;-73
2021/07/25 09:30:55;;;;;;;4.18;2.50;;;;;;;26.20;35.78;100463.88;3582729;40;20051;-73
2021/07/25 09:33:33;;;;;;;3.92;2.30;;;;;;;26.26;35.71;100460.09;3588790;40;20080;-73
2021/07/25 09:36:06;;;;;;;3.42;2.20;;;;;;;26.28;35.54;100463.50;3588084;40;20074;-73
2021/07/25 09:38:35;;;;;;;4.32;2.60;;;;;;;26.32;35.69;100459.13;3588283;40;20052;-73
2021/07/25 09:41:18;;;;;;;4.18;2.30;;;;;;;26.40;35.45;100458.78;3587524;40;20302;-73
2021/07/25 09:44:08;;;;;;;4.22;2.40;;;;;;;26.44;35.42;100461.91;3588733;40;20809;-73
2021/07/25 09:46:48;;;;;;;5.03;2.47;;;;;;;26.52;34.80;100459.59;3586580;40;20119;-73
2021/07/25 09:49:18;;;;;;;3.58;2.22;;;;;;;26.54;35.22;100453.72;3593508;40;20052;-73
2021/07/25 09:51:49;;;;;;;4.28;2.40;;;;;;;26.59;35.10;100457.53;3589885;39;20162;-73
2021/07/25 09:54:25;;;;;;;4.82;2.30;;;;;;;26.67;34.90;100450.66;3593509;40;20080;-73
2021/07/25 09:57:09;;;;;;;3.72;2.10;;;;;;;26.71;34.94;100454.66;3588482;39;20043;-72
2021/07/25 09:59:37;;;;;;;4.53;2.67;;;;;;;26.74;35.11;100447.72;3587583;40;20044;-72
2021/07/25 10:02:05;;;;;;;4.47;2.30;;;;;;;26.81;34.69;100452.06;3587651;40;20385;-72
2021/07/25 10:04:33;;;;;;;3.85;2.30;;;;;;;26.87;34.68;100456.69;3592507;40;20056;-73
2021/07/25 10:07:03;;;;;;;4.30;2.50;;;;;;;26.95;34.65;100450.69;3578754;39;20378;-73
2021/07/25 10:09:31;;;;;;;4.32;2.13;;;;;;;26.99;34.73;100451.06;3589525;40;20048;-72
2021/07/25 10:12:01;;;;;;;4.20;2.38;;;;;;;27.05;34.64;100442.47;3589515;40;20048;-72
2021/07/25 10:14:32;;;;;;;3.80;2.35;;;;;;;27.13;34.42;100446.84;3592640;40;20079;-72
2021/07/25 10:17:03;;;;;;;4.20;2.13;;;;;;;27.16;33.96;100434.25;3588705;39;20048;-72
2021/07/25 10:19:38;;;;;;;4.10;2.20;;;;;;;27.24;33.54;100443.13;3592918;40;20428;-72
2021/07/25 10:22:09;;;;;;;3.20;2.10;;;;;;;27.29;33.88;100440.41;3588799;40;20044;-72
2021/07/25 10:24:39;;;;;;;4.57;2.15;;;;;;;27.33;33.50;100435.13;3592197;40;20051;-72
2021/07/25 10:27:08;;;;;;;4.10;1.83;;;;;;;27.37;33.34;100433.50;3580783;40;20300;-72
2021/07/25 10:29:40;;;;;;;4.18;1.98;;;;;;;27.44;33.46;100437.84;3589649;39;20052;-72
2021/07/25 10:32:08;;;;;;;;;;;;;;;27.17;34.42;100435.97;3589229;40;20387;-72
2021/07/25 10:34:37;;;;;;;4.00;1.83;;;;;;;27.50;33.48;100440.81;3591184;40;19948;-72
2021/07/25 10:37:05;;;;;;;4.53;1.90;;;;;;;27.59;33.20;100440.09;3584195;39;20346;-73
2021/07/25 10:39:37;;;;;;;4.75;2.40;;;;;;;27.65;32.65;100436.28;3590964;40;20169;-73
2021/07/25 10:42:06;;;;;;;3.92;1.90;;;;;;;27.64;32.55;100436.53;3588158;40;20043;-76
2021/07/25 10:44:34;;;;;;;3.67;2.00;;;;;;;27.66;32.52;100454.84;3591105;40;20064;-78
2021/07/25 10:47:30;;;;;;;3.38;2.13;;;;;;;27.61;31.38;100445.47;3588931;39;20051;-79
2021/07/25 10:50:01;;;;;;;3.60;2.00;;;;;;;27.61;31.81;100434.22;3574327;40;20048;-77
2021/07/25 10:53:02;;;;;;;3.28;1.92;;;;;;;27.53;31.54;100449.56;3586672;40;20041;-75
2021/07/25 10:55:52;;;;;;;4.00;2.03;;;;;;;27.44;31.60;100453.84;3591147;40;20044;-75
2021/07/25 10:58:23;;;;;;;3.75;1.92;;;;;;;27.38;31.66;100446.44;3588431;40;20048;-75
2021/07/25 11:00:53;;;;;;;3.90;1.77;;;;;;;27.29;31.39;100453.59;3587875;40;20045;-75
2021/07/25 11:03:47;;;;;;;4.05;2.00;;;;;;;27.21;31.50;100443.63;3588914;39;20149;-74
2021/07/25 11:06:19;;;;;;;2.75;1.73;;;;;;;27.16;31.21;100453.91;3593101;40;20165;-76
2021/07/25 11:08:50;;;;;;;;;;;;;;;26.78;32.49;100457.31;3589438;40;20061;-74
2021/07/25 11:11:51;;;;;;;3.30;1.58;;;;;;;26.93;31.47;100452.88;3590348;40;19944;-75
2021/07/25 11:14:55;;;;;;;3.33;2.08;;;;;;;26.86;30.78;100454.97;3588566;40;20144;-74
2021/07/25 11:18:01;;;;;;;3.67;1.85;;;;;;;26.76;31.14;100448.31;3584807;40;20048;-74
2021/07/25 11:20:58;;;;;;;3.42;1.65;;;;;;;26.61;31.19;100444.06;3576043;40;20068;-74
2021/07/25 11:23:42;;;;;;;3.33;1.77;;;;;;;26.61;30.77;100443.22;3588347;40;20056;-74
2021/07/25 11:26:43;;;;;;;3.20;1.77;;;;;;;26.49;31.02;100446.06;3585043;40;20048;-74
2021/07/25 11:29:17;;;;;;;3.47;1.75;;;;;;;26.43;31.33;100435.84;3587924;40;20312;-74
2021/07/25 11:31:49;;;;;;;3.30;1.73;;;;;;;26.39;31.17;100433.78;3589177;40;20049;-74
2021/07/25 11:34:25;;;;;;;;;;;;;;;26.02;32.22;100436.81;3582110;40;20081;-74
2021/07/25 11:36:57;;;;;;;2.72;1.55;;;;;;;26.25;31.49;100436.81;3588246;40;19972;-74
2021/07/25 11:39:25;;;;;;;3.78;2.05;;;;;;;26.22;31.92;100436.44;3588061;40;20052;-73
2021/07/25 11:41:53;;;;;;;3.03;1.75;;;;;;;26.18;31.65;100436.09;3587967;40;20045;-74